Terminal Aerodrome Forecast
Issued by NWS Tuscon, AZ

Home | Current Version | Previous Version | Text Only | Print | Product List | Glossary On
Versions: 1 2 3 4 5 6 7 8 9 10 11 12 13 14 15
000
FTUS45 KTWC 032337
TAFTUS
TAF
KTUS 032337Z 0400/0424 32006KT P6SM FEW120 SCT350
     FM040300 VRB05KT P6SM SCT110 BKN300
     FM040700 15006KT P6SM FEW120 BKN300
     FM041700 VRB06KT P6SM FEW090 SCT300
     FM042200 29007KT P6SM VCSH SCT110 SCT350=

USA.gov is the U.S. government's official web portal to all federal, state and local government web resources and services.